sensor_id;sensor_type;location;lat;lon;timestamp;temperature;humidity
20288;DHT22;10303;51.960;8.372;2023-03-13T00:00:54;13.60;99.90
20288;DHT22;10303;51.960;8.372;2023-03-13T00:03:22;13.50;99.90
20288;DHT22;10303;51.960;8.372;2023-03-13T00:05:48;13.70;99.90
20288;DHT22;10303;51.960;8.372;2023-03-13T00:08:14;13.70;99.90
20288;DHT22;10303;51.960;8.372;2023-03-13T00:10:41;13.50;99.90
20288;DHT22;10303;51.960;8.372;2023-03-13T00:13:07;13.50;99.90
20288;DHT22;10303;51.960;8.372;2023-03-13T00:15:34;13.60;99.90
20288;DHT22;10303;51.960;8.372;2023-03-13T00:18:00;13.50;99.90
20288;DHT22;10303;51.960;8.372;2023-03-13T00:20:26;13.50;99.90
20288;DHT22;10303;51.960;8.372;2023-03-13T00:22:52;13.40;99.90
20288;DHT22;10303;51.960;8.372;2023-03-13T00:25:18;13.50;99.90
20288;DHT22;10303;51.960;8.372;2023-03-13T00:27:43;13.50;99.90
20288;DHT22;10303;51.960;8.372;2023-03-13T00:30:10;13.50;99.90
20288;DHT22;10303;51.960;8.372;2023-03-13T00:32:44;13.50;99.90
20288;DHT22;10303;51.960;8.372;2023-03-13T00:35:14;13.50;99.90
20288;DHT22;10303;51.960;8.372;2023-03-13T00:37:41;13.50;99.90
20288;DHT22;10303;51.960;8.372;2023-03-13T00:40:09;13.50;99.90
20288;DHT22;10303;51.960;8.372;2023-03-13T00:42:35;13.50;99.90
20288;DHT22;10303;51.960;8.372;2023-03-13T00:45:01;13.50;99.90
20288;DHT22;10303;51.960;8.372;2023-03-13T00:47:28;13.50;99.90
20288;DHT22;10303;51.960;8.372;2023-03-13T00:49:54;13.60;99.90
20288;DHT22;10303;51.960;8.372;2023-03-13T00:52:19;13.60;99.90
20288;DHT22;10303;51.960;8.372;2023-03-13T00:54:45;13.50;99.90
20288;DHT22;10303;51.960;8.372;2023-03-13T00:57:12;13.50;99.90
20288;DHT22;10303;51.960;8.372;2023-03-13T00:59:38;13.50;99.90
20288;DHT22;10303;51.960;8.372;2023-03-13T01:02:04;13.50;99.90
20288;DHT22;10303;51.960;8.372;2023-03-13T01:04:31;13.50;99.90
20288;DHT22;10303;51.960;8.372;2023-03-13T01:06:57;13.50;99.90
20288;DHT22;10303;51.960;8.372;2023-03-13T01:09:23;13.50;99.90
20288;DHT22;10303;51.960;8.372;2023-03-13T01:11:49;13.40;99.90
20288;DHT22;10303;51.960;8.372;2023-03-13T01:14:17;13.40;99.90
20288;DHT22;10303;51.960;8.372;2023-03-13T01:16:45;13.40;99.90
20288;DHT22;10303;51.960;8.372;2023-03-13T01:19:14;13.50;99.90
20288;DHT22;10303;51.960;8.372;2023-03-13T01:21:42;13.60;99.90
20288;DHT22;10303;51.960;8.372;2023-03-13T01:24:09;13.50;99.90
20288;DHT22;10303;51.960;8.372;2023-03-13T01:26:35;13.50;99.90
20288;DHT22;10303;51.960;8.372;2023-03-13T01:29:01;13.60;99.90
20288;DHT22;10303;51.960;8.372;2023-03-13T01:31:32;13.50;99.90
20288;DHT22;10303;51.960;8.372;2023-03-13T01:34:02;13.60;99.90
20288;DHT22;10303;51.960;8.372;2023-03-13T01:36:30;13.50;99.90
20288;DHT22;10303;51.960;8.372;2023-03-13T01:38:58;13.50;99.90
20288;DHT22;10303;51.960;8.372;2023-03-13T01:41:27;13.50;99.90
20288;DHT22;10303;51.960;8.372;2023-03-13T01:43:54;13.70;99.90
20288;DHT22;10303;51.960;8.372;2023-03-13T01:46:22;13.50;99.90
20288;DHT22;10303;51.960;8.372;2023-03-13T01:49:22;13.60;99.90
20288;DHT22;10303;51.960;8.372;2023-03-13T01:52:03;13.50;99.90
20288;DHT22;10303;51.960;8.372;2023-03-13T01:54:43;13.50;99.90
20288;DHT22;10303;51.960;8.372;2023-03-13T01:57:23;13.50;99.90
20288;DHT22;10303;51.960;8.372;2023-03-13T01:59:58;13.70;99.90
20288;DHT22;10303;51.960;8.372;2023-03-13T02:02:26;13.50;99.90
20288;DHT22;10303;51.960;8.372;2023-03-13T02:04:56;13.50;99.90
20288;DHT22;10303;51.960;8.372;2023-03-13T02:07:40;13.50;99.90
20288;DHT22;10303;51.960;8.372;2023-03-13T02:10:11;13.40;99.90
20288;DHT22;10303;51.960;8.372;2023-03-13T02:12:40;13.50;99.90
20288;DHT22;10303;51.960;8.372;2023-03-13T02:15:14;13.40;99.90
20288;DHT22;10303;51.960;8.372;2023-03-13T02:17:44;13.40;99.90
20288;DHT22;10303;51.960;8.372;2023-03-13T02:20:12;13.50;99.90
20288;DHT22;10303;51.960;8.372;2023-03-13T02:23:18;13.40;99.90
20288;DHT22;10303;51.960;8.372;2023-03-13T02:25:51;13.30;99.90
20288;DHT22;10303;51.960;8.372;2023-03-13T02:28:34;13.40;99.90
20288;DHT22;10303;51.960;8.372;2023-03-13T02:31:07;13.50;99.90
20288;DHT22;10303;51.960;8.372;2023-03-13T02:33:37;13.40;99.90
20288;DHT22;10303;51.960;8.372;2023-03-13T02:36:06;13.30;99.90
20288;DHT22;10303;51.960;8.372;2023-03-13T02:38:40;13.30;99.90
20288;DHT22;10303;51.960;8.372;2023-03-13T02:41:14;13.40;99.90
20288;DHT22;10303;51.960;8.372;2023-03-13T02:43:41;13.40;99.90
20288;DHT22;10303;51.960;8.372;2023-03-13T02:46:16;13.30;99.90
20288;DHT22;10303;51.960;8.372;2023-03-13T02:48:52;13.20;99.90
20288;DHT22;10303;51.960;8.372;2023-03-13T02:51:31;13.20;99.90
20288;DHT22;10303;51.960;8.372;2023-03-13T02:54:07;13.20;99.90
20288;DHT22;10303;51.960;8.372;2023-03-13T02:56:38;13.30;99.90
20288;DHT22;10303;51.960;8.372;2023-03-13T02:59:07;13.10;99.90
20288;DHT22;10303;51.960;8.372;2023-03-13T03:01:37;13.10;99.90
20288;DHT22;10303;51.960;8.372;2023-03-13T03:04:03;13.00;99.90
20288;DHT22;10303;51.960;8.372;2023-03-13T03:06:30;13.00;99.90
20288;DHT22;10303;51.960;8.372;2023-03-13T03:09:03;13.00;99.90
20288;DHT22;10303;51.960;8.372;2023-03-13T03:11:32;13.00;99.90
20288;DHT22;10303;51.960;8.372;2023-03-13T03:14:03;12.90;99.90
20288;DHT22;10303;51.960;8.372;2023-03-13T03:16:35;13.00;99.90
20288;DHT22;10303;51.960;8.372;2023-03-13T03:19:04;13.00;99.90
20288;DHT22;10303;51.960;8.372;2023-03-13T03:21:32;12.90;99.90
20288;DHT22;10303;51.960;8.372;2023-03-13T03:23:58;12.90;99.90
20288;DHT22;10303;51.960;8.372;2023-03-13T03:26:24;12.90;99.90
20288;DHT22;10303;51.960;8.372;2023-03-13T03:28:51;12.80;99.90
20288;DHT22;10303;51.960;8.372;2023-03-13T03:31:17;12.90;99.90
20288;DHT22;10303;51.960;8.372;2023-03-13T03:33:44;12.90;99.90
20288;DHT22;10303;51.960;8.372;2023-03-13T03:36:16;12.90;99.90
20288;DHT22;10303;51.960;8.372;2023-03-13T03:38:46;13.10;99.90
20288;DHT22;10303;51.960;8.372;2023-03-13T03:41:16;12.90;99.90
20288;DHT22;10303;51.960;8.372;2023-03-13T03:43:43;13.00;99.90
20288;DHT22;10303;51.960;8.372;2023-03-13T03:46:14;13.00;99.90
20288;DHT22;10303;51.960;8.372;2023-03-13T03:48:40;13.00;99.90
20288;DHT22;10303;51.960;8.372;2023-03-13T03:51:08;13.00;99.90
20288;DHT22;10303;51.960;8.372;2023-03-13T03:53:38;12.90;99.90
20288;DHT22;10303;51.960;8.372;2023-03-13T03:56:04;12.90;99.90
20288;DHT22;10303;51.960;8.372;2023-03-13T03:58:31;13.00;99.90
20288;DHT22;10303;51.960;8.372;2023-03-13T04:01:05;13.00;99.90
20288;DHT22;10303;51.960;8.372;2023-03-13T04:03:31;13.10;99.90
20288;DHT22;10303;51.960;8.372;2023-03-13T04:05:57;12.90;99.90
20288;DHT22;10303;51.960;8.372;2023-03-13T04:08:24;13.00;99.90
20288;DHT22;10303;51.960;8.372;2023-03-13T04:10:51;13.00;99.90
20288;DHT22;10303;51.960;8.372;2023-03-13T04:13:20;13.00;99.90
20288;DHT22;10303;51.960;8.372;2023-03-13T04:15:47;13.00;99.90
20288;DHT22;10303;51.960;8.372;2023-03-13T04:18:14;13.10;99.90
20288;DHT22;10303;51.960;8.372;2023-03-13T04:20:41;13.10;99.90
20288;DHT22;10303;51.960;8.372;2023-03-13T04:23:08;13.20;99.90
20288;DHT22;10303;51.960;8.372;2023-03-13T04:25:34;13.20;99.90
20288;DHT22;10303;51.960;8.372;2023-03-13T04:28:01;13.20;99.90
20288;DHT22;10303;51.960;8.372;2023-03-13T04:30:35;13.20;99.90
20288;DHT22;10303;51.960;8.372;2023-03-13T04:33:19;13.10;99.90
20288;DHT22;10303;51.960;8.372;2023-03-13T04:36:05;13.20;99.90
20288;DHT22;10303;51.960;8.372;2023-03-13T04:38:57;13.20;99.90
20288;DHT22;10303;51.960;8.372;2023-03-13T04:41:35;13.20;99.90
20288;DHT22;10303;51.960;8.372;2023-03-13T04:44:13;13.20;99.90
20288;DHT22;10303;51.960;8.372;2023-03-13T04:46:57;13.30;99.90
20288;DHT22;10303;51.960;8.372;2023-03-13T04:49:58;13.30;99.90
20288;DHT22;10303;51.960;8.372;2023-03-13T04:52:39;13.30;99.90
20288;DHT22;10303;51.960;8.372;2023-03-13T04:55:31;13.50;99.90
20288;DHT22;10303;51.960;8.372;2023-03-13T04:58:26;13.30;99.90
20288;DHT22;10303;51.960;8.372;2023-03-13T05:01:18;13.40;99.90
20288;DHT22;10303;51.960;8.372;2023-03-13T05:04:04;13.30;99.90
20288;DHT22;10303;51.960;8.372;2023-03-13T05:06:50;13.40;99.90
20288;DHT22;10303;51.960;8.372;2023-03-13T05:09:36;13.30;99.90
20288;DHT22;10303;51.960;8.372;2023-03-13T05:12:32;13.40;99.90
20288;DHT22;10303;51.960;8.372;2023-03-13T05:15:11;13.60;99.90
20288;DHT22;10303;51.960;8.372;2023-03-13T05:18:01;13.40;99.90
20288;DHT22;10303;51.960;8.372;2023-03-13T05:20:47;13.40;99.90
20288;DHT22;10303;51.960;8.372;2023-03-13T05:23:33;13.50;99.90
20288;DHT22;10303;51.960;8.372;2023-03-13T05:26:22;13.50;99.90
20288;DHT22;10303;51.960;8.372;2023-03-13T05:29:12;13.70;99.90
20288;DHT22;10303;51.960;8.372;2023-03-13T05:31:54;13.90;99.90
20288;DHT22;10303;51.960;8.372;2023-03-13T05:34:31;13.70;99.90
20288;DHT22;10303;51.960;8.372;2023-03-13T05:36:57;13.80;99.90
20288;DHT22;10303;51.960;8.372;2023-03-13T05:39:35;13.90;99.90
20288;DHT22;10303;51.960;8.372;2023-03-13T05:42:24;13.90;99.90
20288;DHT22;10303;51.960;8.372;2023-03-13T05:45:10;13.90;99.90
20288;DHT22;10303;51.960;8.372;2023-03-13T05:48:00;13.90;99.90
20288;DHT22;10303;51.960;8.372;2023-03-13T05:50:39;13.90;99.90
20288;DHT22;10303;51.960;8.372;2023-03-13T05:53:25;14.00;99.90
20288;DHT22;10303;51.960;8.372;2023-03-13T05:56:17;14.00;99.90
20288;DHT22;10303;51.960;8.372;2023-03-13T05:59:19;14.00;99.90
20288;DHT22;10303;51.960;8.372;2023-03-13T06:02:03;14.10;99.90
20288;DHT22;10303;51.960;8.372;2023-03-13T06:04:35;14.10;99.90
20288;DHT22;10303;51.960;8.372;2023-03-13T06:07:01;14.20;99.90
20288;DHT22;10303;51.960;8.372;2023-03-13T06:09:27;14.20;99.90
20288;DHT22;10303;51.960;8.372;2023-03-13T06:11:55;14.30;99.90
20288;DHT22;10303;51.960;8.372;2023-03-13T06:14:23;14.30;99.90
20288;DHT22;10303;51.960;8.372;2023-03-13T06:17:07;14.30;99.90
20288;DHT22;10303;51.960;8.372;2023-03-13T06:19:33;14.20;99.90
20288;DHT22;10303;51.960;8.372;2023-03-13T06:21:58;14.10;99.90
20288;DHT22;10303;51.960;8.372;2023-03-13T06:24:24;14.20;99.90
20288;DHT22;10303;51.960;8.372;2023-03-13T06:26:50;14.20;99.90
20288;DHT22;10303;51.960;8.372;2023-03-13T06:29:16;14.20;99.90
20288;DHT22;10303;51.960;8.372;2023-03-13T06:31:42;14.40;99.90
20288;DHT22;10303;51.960;8.372;2023-03-13T06:34:12;14.20;99.90
20288;DHT22;10303;51.960;8.372;2023-03-13T06:36:38;14.30;99.90
20288;DHT22;10303;51.960;8.372;2023-03-13T06:39:05;14.30;99.90
20288;DHT22;10303;51.960;8.372;2023-03-13T06:41:31;14.30;99.90
20288;DHT22;10303;51.960;8.372;2023-03-13T06:43:57;14.40;99.90
20288;DHT22;10303;51.960;8.372;2023-03-13T06:46:25;14.30;99.90
20288;DHT22;10303;51.960;8.372;2023-03-13T06:48:51;14.40;99.90
20288;DHT22;10303;51.960;8.372;2023-03-13T06:51:19;14.50;99.90
20288;DHT22;10303;51.960;8.372;2023-03-13T06:53:47;14.60;99.90
20288;DHT22;10303;51.960;8.372;2023-03-13T06:56:13;14.50;99.90
20288;DHT22;10303;51.960;8.372;2023-03-13T06:58:39;14.60;99.90
20288;DHT22;10303;51.960;8.372;2023-03-13T07:01:10;14.70;99.90
20288;DHT22;10303;51.960;8.372;2023-03-13T07:03:38;14.60;99.90
20288;DHT22;10303;51.960;8.372;2023-03-13T07:06:06;14.60;99.90
20288;DHT22;10303;51.960;8.372;2023-03-13T07:08:34;14.60;99.90
20288;DHT22;10303;51.960;8.372;2023-03-13T07:11:02;14.60;99.90
20288;DHT22;10303;51.960;8.372;2023-03-13T07:13:30;14.50;99.90
20288;DHT22;10303;51.960;8.372;2023-03-13T07:16:03;14.70;99.90
20288;DHT22;10303;51.960;8.372;2023-03-13T07:18:34;14.70;99.90
20288;DHT22;10303;51.960;8.372;2023-03-13T07:21:01;14.90;99.90
20288;DHT22;10303;51.960;8.372;2023-03-13T07:23:30;14.70;99.90
20288;DHT22;10303;51.960;8.372;2023-03-13T07:26:00;14.80;99.90
20288;DHT22;10303;51.960;8.372;2023-03-13T07:28:30;14.70;99.90
20288;DHT22;10303;51.960;8.372;2023-03-13T07:31:11;14.80;99.90
20288;DHT22;10303;51.960;8.372;2023-03-13T07:33:40;14.80;99.90
20288;DHT22;10303;51.960;8.372;2023-03-13T07:36:07;14.80;99.90
20288;DHT22;10303;51.960;8.372;2023-03-13T07:38:34;14.80;99.90
20288;DHT22;10303;51.960;8.372;2023-03-13T07:41:00;14.90;99.90
20288;DHT22;10303;51.960;8.372;2023-03-13T07:43:26;15.10;99.90
20288;DHT22;10303;51.960;8.372;2023-03-13T07:45:54;15.00;99.90
20288;DHT22;10303;51.960;8.372;2023-03-13T07:48:23;15.00;99.90
20288;DHT22;10303;51.960;8.372;2023-03-13T07:50:53;15.00;99.90
20288;DHT22;10303;51.960;8.372;2023-03-13T07:53:20;15.10;99.90
20288;DHT22;10303;51.960;8.372;2023-03-13T07:56:04;15.20;99.90
20288;DHT22;10303;51.960;8.372;2023-03-13T07:58:34;15.20;99.90
20288;DHT22;10303;51.960;8.372;2023-03-13T08:01:16;15.20;99.90
20288;DHT22;10303;51.960;8.372;2023-03-13T08:03:44;15.30;99.90
20288;DHT22;10303;51.960;8.372;2023-03-13T08:06:15;15.30;99.90
20288;DHT22;10303;51.960;8.372;2023-03-13T08:08:44;15.40;99.90
20288;DHT22;10303;51.960;8.372;2023-03-13T08:11:17;15.30;99.90
20288;DHT22;10303;51.960;8.372;2023-03-13T08:13:46;15.30;99.90
20288;DHT22;10303;51.960;8.372;2023-03-13T08:16:39;15.40;99.90
20288;DHT22;10303;51.960;8.372;2023-03-13T08:19:04;15.40;99.90
20288;DHT22;10303;51.960;8.372;2023-03-13T08:21:33;15.50;99.90
20288;DHT22;10303;51.960;8.372;2023-03-13T08:24:02;15.60;99.90
20288;DHT22;10303;51.960;8.372;2023-03-13T08:26:33;15.60;99.90
20288;DHT22;10303;51.960;8.372;2023-03-13T08:29:04;15.60;99.90
20288;DHT22;10303;51.960;8.372;2023-03-13T08:31:35;15.70;99.90
20288;DHT22;10303;51.960;8.372;2023-03-13T08:34:03;15.80;99.90
20288;DHT22;10303;51.960;8.372;2023-03-13T08:36:36;15.80;99.90
20288;DHT22;10303;51.960;8.372;2023-03-13T08:39:25;15.80;99.90
20288;DHT22;10303;51.960;8.372;2023-03-13T08:41:52;15.80;99.90
20288;DHT22;10303;51.960;8.372;2023-03-13T08:44:18;15.80;99.90
20288;DHT22;10303;51.960;8.372;2023-03-13T08:46:45;15.90;99.90
20288;DHT22;10303;51.960;8.372;2023-03-13T08:49:13;15.90;99.90
20288;DHT22;10303;51.960;8.372;2023-03-13T08:51:42;15.90;99.90
20288;DHT22;10303;51.960;8.372;2023-03-13T08:54:08;15.90;99.90
20288;DHT22;10303;51.960;8.372;2023-03-13T08:56:35;15.90;99.90
20288;DHT22;10303;51.960;8.372;2023-03-13T08:59:03;16.00;99.90
20288;DHT22;10303;51.960;8.372;2023-03-13T09:01:34;16.00;99.90
20288;DHT22;10303;51.960;8.372;2023-03-13T09:04:02;15.90;99.90
20288;DHT22;10303;51.960;8.372;2023-03-13T09:06:29;15.90;99.90
20288;DHT22;10303;51.960;8.372;2023-03-13T09:08:56;15.90;99.90
20288;DHT22;10303;51.960;8.372;2023-03-13T09:11:22;15.90;99.90
20288;DHT22;10303;51.960;8.372;2023-03-13T09:13:49;15.90;99.90
20288;DHT22;10303;51.960;8.372;2023-03-13T09:16:23;15.90;99.90
20288;DHT22;10303;51.960;8.372;2023-03-13T09:18:51;15.90;99.90
20288;DHT22;10303;51.960;8.372;2023-03-13T09:21:24;15.90;99.90
20288;DHT22;10303;51.960;8.372;2023-03-13T09:23:51;16.00;99.90
20288;DHT22;10303;51.960;8.372;2023-03-13T09:26:19;16.20;99.90
20288;DHT22;10303;51.960;8.372;2023-03-13T09:28:45;16.00;99.90
20288;DHT22;10303;51.960;8.372;2023-03-13T09:31:16;16.10;99.90
20288;DHT22;10303;51.960;8.372;2023-03-13T09:33:45;15.90;99.90
20288;DHT22;10303;51.960;8.372;2023-03-13T09:36:12;15.70;99.90
20288;DHT22;10303;51.960;8.372;2023-03-13T09:38:39;15.60;99.90
20288;DHT22;10303;51.960;8.372;2023-03-13T09:41:28;15.70;99.90
20288;DHT22;10303;51.960;8.372;2023-03-13T09:44:18;15.80;99.90
20288;DHT22;10303;51.960;8.372;2023-03-13T09:46:54;15.80;99.90
20288;DHT22;10303;51.960;8.372;2023-03-13T09:52:25;15.80;99.90
20288;DHT22;10303;51.960;8.372;2023-03-13T09:54:58;16.00;99.90
20288;DHT22;10303;51.960;8.372;2023-03-13T10:00:04;16.10;99.90
20288;DHT22;10303;51.960;8.372;2023-03-13T10:02:36;16.20;99.90
20288;DHT22;10303;51.960;8.372;2023-03-13T10:07:43;16.30;99.90
20288;DHT22;10303;51.960;8.372;2023-03-13T10:10:18;16.40;99.90
20288;DHT22;10303;51.960;8.372;2023-03-13T10:12:51;16.50;99.90
20288;DHT22;10303;51.960;8.372;2023-03-13T10:15:45;16.50;99.90
20288;DHT22;10303;51.960;8.372;2023-03-13T10:18:19;16.40;99.90
20288;DHT22;10303;51.960;8.372;2023-03-13T10:20:49;16.60;99.90
20288;DHT22;10303;51.960;8.372;2023-03-13T10:23:38;16.70;99.90
20288;DHT22;10303;51.960;8.372;2023-03-13T10:26:31;16.90;99.90
20288;DHT22;10303;51.960;8.372;2023-03-13T10:29:24;17.10;99.90
20288;DHT22;10303;51.960;8.372;2023-03-13T10:32:02;17.20;99.90
20288;DHT22;10303;51.960;8.372;2023-03-13T10:34:46;17.30;99.90
20288;DHT22;10303;51.960;8.372;2023-03-13T10:37:27;17.30;99.90
20288;DHT22;10303;51.960;8.372;2023-03-13T10:40:28;17.30;99.90
20288;DHT22;10303;51.960;8.372;2023-03-13T10:43:11;17.10;99.90
20288;DHT22;10303;51.960;8.372;2023-03-13T10:45:39;17.30;99.90
20288;DHT22;10303;51.960;8.372;2023-03-13T10:48:18;17.30;99.90
20288;DHT22;10303;51.960;8.372;2023-03-13T10:50:50;17.40;99.90
20288;DHT22;10303;51.960;8.372;2023-03-13T10:56:13;17.60;99.90
20288;DHT22;10303;51.960;8.372;2023-03-13T10:58:42;17.60;99.90
20288;DHT22;10303;51.960;8.372;2023-03-13T11:01:28;17.60;99.90
20288;DHT22;10303;51.960;8.372;2023-03-13T11:04:19;17.70;99.90
20288;DHT22;10303;51.960;8.372;2023-03-13T11:06:52;17.60;99.90
20288;DHT22;10303;51.960;8.372;2023-03-13T11:09:25;17.60;99.90
20288;DHT22;10303;51.960;8.372;2023-03-13T11:11:54;17.70;99.90
20288;DHT22;10303;51.960;8.372;2023-03-13T11:14:26;17.70;99.90
20288;DHT22;10303;51.960;8.372;2023-03-13T11:29:38;17.90;99.90
20288;DHT22;10303;51.960;8.372;2023-03-13T11:32:40;18.10;99.90
20288;DHT22;10303;51.960;8.372;2023-03-13T11:35:32;18.00;99.90
20288;DHT22;10303;51.960;8.372;2023-03-13T11:38:08;18.20;99.90
20288;DHT22;10303;51.960;8.372;2023-03-13T11:55:36;18.10;99.90
20288;DHT22;10303;51.960;8.372;2023-03-13T11:58:41;18.20;99.90
20288;DHT22;10303;51.960;8.372;2023-03-13T12:01:31;18.30;99.90
20288;DHT22;10303;51.960;8.372;2023-03-13T12:04:16;18.40;99.90
20288;DHT22;10303;51.960;8.372;2023-03-13T12:06:56;18.50;99.90
20288;DHT22;10303;51.960;8.372;2023-03-13T12:12:26;18.50;99.90
20288;DHT22;10303;51.960;8.372;2023-03-13T12:17:39;18.50;99.90
20288;DHT22;10303;51.960;8.372;2023-03-13T12:23:19;18.70;99.90
20288;DHT22;10303;51.960;8.372;2023-03-13T12:25:53;18.70;99.90
20288;DHT22;10303;51.960;8.372;2023-03-13T12:36:51;18.50;99.90
20288;DHT22;10303;51.960;8.372;2023-03-13T12:44:38;18.30;99.90
20288;DHT22;10303;51.960;8.372;2023-03-13T12:47:17;18.40;99.90
20288;DHT22;10303;51.960;8.372;2023-03-13T12:50:15;18.60;99.90
20288;DHT22;10303;51.960;8.372;2023-03-13T12:58:53;19.00;99.90
20288;DHT22;10303;51.960;8.372;2023-03-13T13:03:53;18.70;99.90
20288;DHT22;10303;51.960;8.372;2023-03-13T13:06:22;18.90;99.90
20288;DHT22;10303;51.960;8.372;2023-03-13T13:25:26;19.20;99.90
20288;DHT22;10303;51.960;8.372;2023-03-13T13:30:43;19.60;99.90
20288;DHT22;10303;51.960;8.372;2023-03-13T13:38:39;19.60;99.90
20288;DHT22;10303;51.960;8.372;2023-03-13T13:43:37;19.60;99.90
20288;DHT22;10303;51.960;8.372;2023-03-13T13:46:17;19.70;99.90
20288;DHT22;10303;51.960;8.372;2023-03-13T13:51:37;19.50;99.90
20288;DHT22;10303;51.960;8.372;2023-03-13T13:57:09;19.40;99.90
20288;DHT22;10303;51.960;8.372;2023-03-13T13:59:45;19.60;99.90
20288;DHT22;10303;51.960;8.372;2023-03-13T14:02:20;19.20;99.90
20288;DHT22;10303;51.960;8.372;2023-03-13T14:05:00;19.00;99.90
20288;DHT22;10303;51.960;8.372;2023-03-13T14:10:36;19.10;99.90
20288;DHT22;10303;51.960;8.372;2023-03-13T14:13:14;18.80;99.90
20288;DHT22;10303;51.960;8.372;2023-03-13T14:15:52;19.10;99.90
20288;DHT22;10303;51.960;8.372;2023-03-13T14:18:22;19.20;99.90
20288;DHT22;10303;51.960;8.372;2023-03-13T14:21:02;19.40;99.90
20288;DHT22;10303;51.960;8.372;2023-03-13T14:23:41;19.40;99.90
20288;DHT22;10303;51.960;8.372;2023-03-13T14:26:18;19.20;99.90
20288;DHT22;10303;51.960;8.372;2023-03-13T14:28:56;19.10;99.90
20288;DHT22;10303;51.960;8.372;2023-03-13T14:31:35;19.10;99.90
20288;DHT22;10303;51.960;8.372;2023-03-13T14:34:04;19.20;99.90
20288;DHT22;10303;51.960;8.372;2023-03-13T14:39:35;18.70;99.90
20288;DHT22;10303;51.960;8.372;2023-03-13T14:42:05;18.50;99.90
20288;DHT22;10303;51.960;8.372;2023-03-13T14:44:35;18.60;99.90
20288;DHT22;10303;51.960;8.372;2023-03-13T14:47:05;18.60;99.90
20288;DHT22;10303;51.960;8.372;2023-03-13T14:49:34;18.80;99.90
20288;DHT22;10303;51.960;8.372;2023-03-13T14:52:04;18.70;99.90
20288;DHT22;10303;51.960;8.372;2023-03-13T14:54:53;18.90;99.90
20288;DHT22;10303;51.960;8.372;2023-03-13T14:57:27;19.10;99.90
20288;DHT22;10303;51.960;8.372;2023-03-13T14:59:55;19.20;99.90
20288;DHT22;10303;51.960;8.372;2023-03-13T15:05:43;19.20;99.90
20288;DHT22;10303;51.960;8.372;2023-03-13T15:08:13;19.00;99.90
20288;DHT22;10303;51.960;8.372;2023-03-13T15:10:42;18.90;99.90
20288;DHT22;10303;51.960;8.372;2023-03-13T15:15:57;18.80;99.90
20288;DHT22;10303;51.960;8.372;2023-03-13T15:18:28;18.80;99.90
20288;DHT22;10303;51.960;8.372;2023-03-13T15:21:20;18.80;99.90
20288;DHT22;10303;51.960;8.372;2023-03-13T15:24:11;19.00;99.90
20288;DHT22;10303;51.960;8.372;2023-03-13T15:26:40;19.10;99.90
20288;DHT22;10303;51.960;8.372;2023-03-13T15:29:06;19.10;99.90
20288;DHT22;10303;51.960;8.372;2023-03-13T15:31:32;19.10;99.90
20288;DHT22;10303;51.960;8.372;2023-03-13T15:33:59;19.10;99.90
20288;DHT22;10303;51.960;8.372;2023-03-13T15:36:27;19.10;99.90
20288;DHT22;10303;51.960;8.372;2023-03-13T15:38:54;18.80;99.90
20288;DHT22;10303;51.960;8.372;2023-03-13T15:41:21;18.80;99.90
20288;DHT22;10303;51.960;8.372;2023-03-13T15:43:49;18.90;99.90
20288;DHT22;10303;51.960;8.372;2023-03-13T15:46:20;19.10;99.90
20288;DHT22;10303;51.960;8.372;2023-03-13T15:48:47;19.10;99.90
20288;DHT22;10303;51.960;8.372;2023-03-13T15:51:15;19.00;99.90
20288;DHT22;10303;51.960;8.372;2023-03-13T15:53:42;19.10;99.90
20288;DHT22;10303;51.960;8.372;2023-03-13T15:56:17;19.10;99.90
20288;DHT22;10303;51.960;8.372;2023-03-13T15:58:45;19.20;99.90
20288;DHT22;10303;51.960;8.372;2023-03-13T16:01:13;19.20;99.90
20288;DHT22;10303;51.960;8.372;2023-03-13T16:03:41;19.20;99.90
20288;DHT22;10303;51.960;8.372;2023-03-13T16:06:14;19.30;99.90
20288;DHT22;10303;51.960;8.372;2023-03-13T16:08:42;19.30;99.90
20288;DHT22;10303;51.960;8.372;2023-03-13T16:11:12;19.20;99.90
20288;DHT22;10303;51.960;8.372;2023-03-13T16:13:39;19.20;99.90
20288;DHT22;10303;51.960;8.372;2023-03-13T16:16:18;19.10;99.90
20288;DHT22;10303;51.960;8.372;2023-03-13T16:18:50;19.10;99.90
20288;DHT22;10303;51.960;8.372;2023-03-13T16:21:27;19.00;99.90
20288;DHT22;10303;51.960;8.372;2023-03-13T16:23:59;19.00;99.90
20288;DHT22;10303;51.960;8.372;2023-03-13T16:26:30;19.10;99.90
20288;DHT22;10303;51.960;8.372;2023-03-13T16:28:58;19.10;99.90
20288;DHT22;10303;51.960;8.372;2023-03-13T16:31:29;19.10;99.90
20288;DHT22;10303;51.960;8.372;2023-03-13T16:33:57;19.00;99.90
20288;DHT22;10303;51.960;8.372;2023-03-13T16:36:26;19.00;99.90
20288;DHT22;10303;51.960;8.372;2023-03-13T16:38:56;19.10;99.90
20288;DHT22;10303;51.960;8.372;2023-03-13T16:41:27;18.90;99.90
20288;DHT22;10303;51.960;8.372;2023-03-13T16:43:53;19.00;99.90
20288;DHT22;10303;51.960;8.372;2023-03-13T16:46:24;18.80;99.90
20288;DHT22;10303;51.960;8.372;2023-03-13T16:48:54;18.90;99.90
20288;DHT22;10303;51.960;8.372;2023-03-13T16:51:24;19.00;99.90
20288;DHT22;10303;51.960;8.372;2023-03-13T16:53:54;19.10;99.90
20288;DHT22;10303;51.960;8.372;2023-03-13T16:56:28;19.10;99.90
20288;DHT22;10303;51.960;8.372;2023-03-13T16:59:05;18.90;99.90
20288;DHT22;10303;51.960;8.372;2023-03-13T17:01:32;18.90;99.90
20288;DHT22;10303;51.960;8.372;2023-03-13T17:03:58;19.00;99.90
20288;DHT22;10303;51.960;8.372;2023-03-13T17:06:27;19.10;99.90
20288;DHT22;10303;51.960;8.372;2023-03-13T17:08:58;18.90;99.90
20288;DHT22;10303;51.960;8.372;2023-03-13T17:11:27;18.80;99.90
20288;DHT22;10303;51.960;8.372;2023-03-13T17:13:53;18.80;99.90
20288;DHT22;10303;51.960;8.372;2023-03-13T17:16:31;18.80;99.90
20288;DHT22;10303;51.960;8.372;2023-03-13T17:18:59;18.70;99.90
20288;DHT22;10303;51.960;8.372;2023-03-13T17:21:29;18.50;99.90
20288;DHT22;10303;51.960;8.372;2023-03-13T17:23:59;18.50;99.90
20288;DHT22;10303;51.960;8.372;2023-03-13T17:26:27;18.50;99.90
20288;DHT22;10303;51.960;8.372;2023-03-13T17:28:58;18.50;99.90
20288;DHT22;10303;51.960;8.372;2023-03-13T17:31:26;18.50;99.90
20288;DHT22;10303;51.960;8.372;2023-03-13T17:33:53;18.50;99.90
20288;DHT22;10303;51.960;8.372;2023-03-13T17:36:24;18.30;99.90
20288;DHT22;10303;51.960;8.372;2023-03-13T17:38:54;18.30;99.90
20288;DHT22;10303;51.960;8.372;2023-03-13T17:41:28;18.30;99.90
20288;DHT22;10303;51.960;8.372;2023-03-13T17:43:56;18.40;99.90
20288;DHT22;10303;51.960;8.372;2023-03-13T17:46:24;18.30;99.90
20288;DHT22;10303;51.960;8.372;2023-03-13T17:48:55;18.20;99.90
20288;DHT22;10303;51.960;8.372;2023-03-13T17:51:26;18.20;99.90
20288;DHT22;10303;51.960;8.372;2023-03-13T17:53:55;18.20;99.90
20288;DHT22;10303;51.960;8.372;2023-03-13T17:56:31;18.20;99.90
20288;DHT22;10303;51.960;8.372;2023-03-13T17:59:02;18.10;99.90